createdAt,value
2023-01-13T00:03:53.644Z,99.9
2023-01-13T00:05:57.699Z,99.9
2023-01-13T00:08:01.713Z,99.9
2023-01-13T00:10:05.723Z,99.9
2023-01-13T00:14:16.766Z,99.9
2023-01-13T00:16:20.856Z,99.9
2023-01-13T00:18:24.795Z,99.9
2023-01-13T00:20:28.794Z,99.9
2023-01-13T00:22:32.841Z,99.9
2023-01-13T00:24:36.867Z,99.9
2023-01-13T00:26:40.822Z,25.6
2023-01-13T00:28:47.830Z,1
2023-01-13T00:30:51.964Z,1
2023-01-13T00:32:55.904Z,1
2023-01-13T00:45:43.151Z,99.9
2023-01-13T00:49:51.212Z,72.9
2023-01-13T00:56:06.211Z,39.4
2023-01-13T01:00:14.199Z,1
2023-01-13T01:02:18.270Z,37.8
2023-01-13T01:04:22.196Z,16.5
2023-01-13T01:06:26.204Z,8
2023-01-13T01:08:30.189Z,75.5
2023-01-13T01:10:37.193Z,69.6
2023-01-13T01:12:41.151Z,58.6
2023-01-13T01:14:45.248Z,99.6
2023-01-13T01:16:49.176Z,71.7
2023-01-13T01:18:53.129Z,99.6
2023-01-13T01:20:57.155Z,99.8
2023-01-13T01:23:01.123Z,99.8
2023-01-13T01:25:08.165Z,99.8
2023-01-13T01:27:12.123Z,99.8
2023-01-13T01:29:16.110Z,99.8
2023-01-13T01:32:23.562Z,99.6
2023-01-13T01:34:27.575Z,80
2023-01-13T01:36:31.593Z,95.6
2023-01-13T01:38:38.576Z,90.4
2023-01-13T01:40:42.557Z,91.4
2023-01-13T01:42:46.557Z,68.9
2023-01-13T01:46:54.578Z,70.6
2023-01-13T01:48:58.484Z,71.9
2023-01-13T01:51:02.504Z,69.6
2023-01-13T01:53:09.522Z,36.1
2023-01-13T01:55:13.508Z,36.2
2023-01-13T01:57:17.491Z,29
2023-01-13T01:59:21.491Z,14.8
2023-01-13T02:03:29.460Z,30.8
2023-01-13T02:05:33.464Z,29.7
2023-01-13T02:07:40.417Z,14.7
2023-01-13T02:09:44.432Z,22.6
2023-01-13T02:11:48.424Z,30.2
2023-01-13T02:20:04.344Z,68.6
2023-01-13T02:22:11.359Z,55.3
2023-01-13T02:24:15.318Z,55.6
2023-01-13T02:26:19.312Z,55.5
2023-01-13T02:27:22.772Z,42
2023-01-13T02:29:26.772Z,40.5
2023-01-13T02:31:30.821Z,29.3
2023-01-13T02:33:34.707Z,5.6
2023-01-13T02:35:41.729Z,1
2023-01-13T02:37:45.675Z,5
2023-01-13T02:39:49.683Z,1
2023-01-13T02:41:53.655Z,4.1
2023-01-13T03:00:32.478Z,1
2023-01-13T03:04:43.419Z,1
2023-01-13T03:08:51.406Z,1
2023-01-13T03:10:55.387Z,1
2023-01-13T03:15:03.350Z,1
2023-01-13T03:23:22.311Z,1
2023-01-13T03:26:29.823Z,1
2023-01-13T03:28:33.828Z,1
2023-01-13T03:30:37.879Z,1
2023-01-13T03:32:44.791Z,1
2023-01-13T03:34:48.769Z,1
2023-01-13T03:36:52.769Z,1
2023-01-13T03:41:00.754Z,1
2023-01-13T03:43:04.741Z,1
2023-01-13T03:45:08.727Z,1
2023-01-13T03:47:15.735Z,1
2023-01-13T03:51:23.751Z,1
2023-01-13T03:53:27.692Z,1
2023-01-13T03:57:35.713Z,1
2023-01-13T03:59:39.716Z,1
2023-01-13T04:03:50.733Z,1
2023-01-13T04:05:54.701Z,1
2023-01-13T04:07:58.693Z,1
2023-01-13T04:14:10.682Z,1
2023-01-13T04:16:17.673Z,1
2023-01-13T04:18:21.677Z,1
2023-01-13T04:20:25.651Z,1
2023-01-13T04:24:53.767Z,1
2023-01-13T04:26:57.769Z,1
2023-01-13T04:29:04.790Z,1
2023-01-13T04:31:08.775Z,1
2023-01-13T04:33:12.725Z,1
2023-01-13T04:35:16.727Z,1
2023-01-13T04:37:20.729Z,1
2023-01-13T04:39:24.718Z,1
2023-01-13T04:41:28.674Z,1
2023-01-13T04:43:35.689Z,1
2023-01-13T04:47:43.657Z,1
2023-01-13T04:51:53.168Z,1
2023-01-13T04:53:57.153Z,1
2023-01-13T04:56:01.153Z,1
2023-01-13T05:02:16.147Z,1
2023-01-13T05:04:20.078Z,1
2023-01-13T05:06:24.104Z,1
2023-01-13T05:08:28.055Z,1
2023-01-13T05:12:39.003Z,1
2023-01-13T05:14:42.972Z,1
2023-01-13T05:16:46.984Z,1
2023-01-13T05:19:54.479Z,1
2023-01-13T05:21:58.425Z,1
2023-01-13T05:24:02.411Z,1
2023-01-13T05:26:09.424Z,1
2023-01-13T05:28:13.399Z,1
2023-01-13T05:30:17.358Z,1
2023-01-13T05:32:21.363Z,1
2023-01-13T05:34:25.342Z,1
2023-01-13T05:36:29.305Z,1
2023-01-13T05:38:33.297Z,1
2023-01-13T05:40:40.269Z,1
2023-01-13T05:42:44.243Z,1
2023-01-13T05:44:48.221Z,1
2023-01-13T05:48:56.178Z,1
2023-01-13T05:51:00.144Z,1
2023-01-13T05:53:04.120Z,1
2023-01-13T05:57:15.100Z,1
2023-01-13T06:01:23.117Z,1
2023-01-13T06:03:27.019Z,1
2023-01-13T06:05:31.011Z,1
2023-01-13T06:07:34.986Z,1
2023-01-13T06:09:41.962Z,1
2023-01-13T06:11:45.936Z,1
2023-01-13T06:13:49.931Z,1
2023-01-13T06:14:53.406Z,1
2023-01-13T06:16:57.388Z,1
2023-01-13T06:19:01.375Z,1
2023-01-13T06:21:05.340Z,1
2023-01-13T06:23:12.346Z,1
2023-01-13T06:25:16.325Z,1
2023-01-13T06:27:20.326Z,1
2023-01-13T06:29:24.302Z,1
2023-01-13T06:31:28.279Z,1
2023-01-13T06:33:32.256Z,1
2023-01-13T06:35:36.248Z,1
2023-01-13T06:43:55.175Z,1
2023-01-13T06:50:07.145Z,1
2023-01-13T06:52:14.115Z,1
2023-01-13T06:54:18.112Z,1
2023-01-13T06:56:22.098Z,1
2023-01-13T06:58:26.077Z,1
2023-01-13T07:00:30.051Z,1
2023-01-13T07:02:34.072Z,1
2023-01-13T07:04:38.043Z,1
2023-01-13T07:06:45.039Z,1
2023-01-13T07:11:56.488Z,1
2023-01-13T07:14:00.495Z,1
2023-01-13T07:16:04.523Z,1
2023-01-13T07:18:08.485Z,1
2023-01-13T07:20:15.466Z,1
2023-01-13T07:22:19.456Z,1
2023-01-13T07:24:23.485Z,1
2023-01-13T07:26:27.451Z,1
2023-01-13T07:28:31.426Z,1
2023-01-13T07:30:35.415Z,1
2023-01-13T07:32:39.408Z,1
2023-01-13T07:34:46.400Z,1
2023-01-13T07:38:55.012Z,1
2023-01-13T07:40:58.379Z,1
2023-01-13T07:45:06.358Z,1
2023-01-13T07:47:10.383Z,1
2023-01-13T07:49:17.344Z,1
2023-01-13T07:51:21.343Z,1
2023-01-13T07:53:25.339Z,1
2023-01-13T07:59:37.299Z,1
2023-01-13T08:03:48.329Z,1
2023-01-13T08:07:56.294Z,1
2023-01-13T08:10:20.521Z,1
2023-01-13T08:12:24.500Z,1
2023-01-13T08:14:28.497Z,1
2023-01-13T08:16:35.534Z,1
2023-01-13T08:18:39.481Z,1
2023-01-13T08:20:43.470Z,1
2023-01-13T08:22:47.475Z,1
2023-01-13T08:24:51.479Z,1
2023-01-13T08:26:55.440Z,1
2023-01-13T08:28:59.459Z,1
2023-01-13T08:31:06.476Z,1
2023-01-13T08:33:10.414Z,1
2023-01-13T08:35:14.374Z,1
2023-01-13T08:37:18.361Z,1
2023-01-13T08:39:22.372Z,1
2023-01-13T08:41:26.357Z,1
2023-01-13T08:43:30.318Z,1
2023-01-13T08:51:49.278Z,1
2023-01-13T08:53:53.281Z,1
2023-01-13T08:58:14.522Z,1
2023-01-13T09:00:08.261Z,1
2023-01-13T09:02:12.367Z,1
2023-01-13T09:05:19.721Z,1
2023-01-13T09:07:23.723Z,1
2023-01-13T09:09:27.722Z,1
2023-01-13T09:11:31.741Z,1
2023-01-13T09:13:38.691Z,1
2023-01-13T09:15:43.005Z,1
2023-01-13T09:17:46.676Z,1
2023-01-13T09:19:50.661Z,10.4
2023-01-13T09:21:55.551Z,96.9
2023-01-13T09:23:59.504Z,98
2023-01-13T09:26:03.505Z,98.3
2023-01-13T09:32:18.460Z,99.6
2023-01-13T09:34:22.414Z,99.9
2023-01-13T09:36:26.401Z,99.9
2023-01-13T09:38:30.347Z,99.9
2023-01-13T09:40:34.346Z,99.9
2023-01-13T09:42:41.292Z,99.9
2023-01-13T09:46:49.227Z,99.9
2023-01-13T09:48:53.225Z,99.9
2023-01-13T09:50:57.168Z,99.9
2023-01-13T09:53:01.127Z,99.9
2023-01-13T09:55:05.081Z,99.9
2023-01-13T09:57:12.052Z,91.8
2023-01-13T09:59:16.026Z,99.6
2023-01-13T10:01:20.040Z,99.8
2023-01-13T10:02:23.475Z,99.8
2023-01-13T10:04:27.506Z,99.8
2023-01-13T10:06:31.384Z,99.8
2023-01-13T10:08:35.357Z,99.8
2023-01-13T10:10:42.347Z,1
2023-01-13T10:12:46.271Z,99.8
2023-01-13T10:14:50.242Z,99.9
2023-01-13T10:16:54.220Z,99.9
2023-01-13T10:18:58.163Z,99.9
2023-01-13T10:21:02.118Z,99.9
2023-01-13T10:23:06.113Z,99.9
2023-01-13T10:39:43.856Z,1
2023-01-13T10:41:47.796Z,5.5
2023-01-13T10:48:01.291Z,99.6
2023-01-13T10:54:26.452Z,99.3
2023-01-13T10:56:30.276Z,99.4
2023-01-13T10:58:24.135Z,1
2023-01-13T11:01:31.723Z,1
2023-01-13T11:03:35.553Z,1
2023-01-13T11:05:39.537Z,1
2023-01-13T11:09:50.451Z,99.8
2023-01-13T11:13:58.357Z,99.9
2023-01-13T11:16:02.425Z,1
2023-01-13T11:20:10.258Z,1
2023-01-13T11:22:17.222Z,1
2023-01-13T11:24:21.190Z,1
2023-01-13T11:26:25.153Z,1
2023-01-13T11:28:29.135Z,99.9
2023-01-13T11:30:33.079Z,99.9
2023-01-13T11:32:37.059Z,99.9
2023-01-13T11:34:41.010Z,99.9
2023-01-13T11:36:48.042Z,99.9
2023-01-13T11:38:51.984Z,99.9
2023-01-13T11:40:55.968Z,99.9
2023-01-13T11:42:59.961Z,99.9
2023-01-13T11:45:03.905Z,99.9
2023-01-13T11:47:07.909Z,99.9
2023-01-13T11:49:11.885Z,81.9
2023-01-13T11:51:18.868Z,99.8
2023-01-13T11:53:22.854Z,82.7
2023-01-13T11:57:51.131Z,20.3
2023-01-13T11:59:55.105Z,36.7
2023-01-13T12:01:59.166Z,20.6
2023-01-13T12:04:06.113Z,7.2
2023-01-13T12:06:10.103Z,1
2023-01-13T12:08:14.064Z,1
2023-01-13T12:10:18.103Z,1
2023-01-13T12:12:22.097Z,1
2023-01-13T12:14:26.059Z,1
2023-01-13T12:16:30.066Z,1
2023-01-13T12:22:45.047Z,1
2023-01-13T12:24:49.036Z,1
2023-01-13T12:26:53.027Z,1
2023-01-13T12:31:01.020Z,1
2023-01-13T12:33:08.001Z,1
2023-01-13T12:35:11.993Z,1
2023-01-13T12:37:15.991Z,1
2023-01-13T12:39:20.011Z,1
2023-01-13T12:41:23.999Z,1
2023-01-13T12:43:27.985Z,1
2023-01-13T12:47:39.016Z,1
2023-01-13T12:49:43.038Z,1
2023-01-13T12:51:46.999Z,1
2023-01-13T12:54:54.521Z,1
2023-01-13T12:59:02.535Z,1
2023-01-13T13:01:09.666Z,1
2023-01-13T13:03:13.543Z,1
2023-01-13T13:11:29.578Z,1
2023-01-13T13:13:33.595Z,1
2023-01-13T13:15:40.607Z,1
2023-01-13T13:17:44.594Z,1
2023-01-13T13:19:48.631Z,1
2023-01-13T13:21:52.636Z,1
2023-01-13T13:23:56.655Z,1
2023-01-13T13:26:00.681Z,1
2023-01-13T13:28:04.701Z,1
2023-01-13T13:30:11.693Z,99.8
2023-01-13T13:32:15.737Z,99.8
2023-01-13T13:34:19.733Z,99.8
2023-01-13T13:36:23.731Z,1
2023-01-13T13:38:27.751Z,1
2023-01-13T13:40:31.815Z,99.8
2023-01-13T13:42:35.803Z,99.8
2023-01-13T13:44:42.830Z,99.9
2023-01-13T13:48:50.885Z,99.9
2023-01-13T13:49:54.416Z,99.9
2023-01-13T13:51:58.477Z,99.9
2023-01-13T13:54:02.454Z,99.9
2023-01-13T13:56:06.414Z,99.9
2023-01-13T13:58:13.476Z,99.9
2023-01-13T14:00:17.481Z,99.9
2023-01-13T14:02:21.662Z,99.9
2023-01-13T14:04:25.534Z,99.9
2023-01-13T14:06:29.548Z,99.9
2023-01-13T14:08:33.557Z,99.9
2023-01-13T14:10:37.592Z,99.9
2023-01-13T14:12:44.593Z,99.9
2023-01-13T14:14:48.669Z,99.9
2023-01-13T14:16:52.672Z,99.9
2023-01-13T14:18:56.701Z,99.9
2023-01-13T14:21:00.726Z,99.9
2023-01-13T14:23:04.730Z,99.9
2023-01-13T14:25:08.757Z,99.9
2023-01-13T14:27:15.828Z,99.9
2023-01-13T14:29:19.823Z,99.9
2023-01-13T14:31:23.884Z,99.9
2023-01-13T14:33:27.899Z,99.9
2023-01-13T14:35:31.895Z,99.9
2023-01-13T14:37:35.941Z,99.9
2023-01-13T14:39:39.990Z,99.9
2023-01-13T14:45:55.056Z,99.9
2023-01-13T14:46:58.550Z,99.9
2023-01-13T14:49:02.589Z,99.9
2023-01-13T14:51:06.675Z,99.9
2023-01-13T14:53:10.645Z,99.9
2023-01-13T14:55:17.682Z,99.9
2023-01-13T14:57:21.760Z,99.9
2023-01-13T14:59:25.747Z,99.9
2023-01-13T15:01:29.924Z,99.9
2023-01-13T15:03:33.803Z,99.9
2023-01-13T15:05:37.820Z,99.9
2023-01-13T15:07:41.845Z,99.9
2023-01-13T15:11:52.912Z,99.9
2023-01-13T15:22:13.040Z,99.9
2023-01-13T15:32:36.176Z,99.9
2023-01-13T15:34:40.166Z,1
2023-01-13T15:36:44.179Z,1
2023-01-13T15:40:55.260Z,1
2023-01-13T15:42:59.254Z,1
2023-01-13T15:45:23.784Z,1
2023-01-13T15:47:27.816Z,1
2023-01-13T15:49:31.829Z,1
2023-01-13T15:51:38.847Z,1
2023-01-13T15:53:42.861Z,1
2023-01-13T15:55:46.854Z,1
2023-01-13T15:57:50.908Z,1
2023-01-13T15:59:54.871Z,99.9
2023-01-13T16:01:58.887Z,99.9
2023-01-13T16:04:02.909Z,99.9
2023-01-13T16:06:09.917Z,99.9
2023-01-13T16:08:13.954Z,99.9
2023-01-13T16:10:17.966Z,99.9
2023-01-13T16:12:21.972Z,99.9
2023-01-13T16:14:25.976Z,99.9
2023-01-13T16:16:30.047Z,99.9
2023-01-13T16:18:34.049Z,99.9
2023-01-13T16:20:41.044Z,99.9
2023-01-13T16:22:45.045Z,99.9
2023-01-13T16:24:49.090Z,99.9
2023-01-13T16:26:53.125Z,99.9
2023-01-13T16:28:57.192Z,99.9
2023-01-13T16:31:01.130Z,99.9
2023-01-13T16:33:05.201Z,99.9
2023-01-13T16:35:12.251Z,99.9
2023-01-13T16:37:16.262Z,99.9
2023-01-13T16:40:23.770Z,99.9
2023-01-13T16:44:33.390Z,99.9
2023-01-13T16:48:44.449Z,1
2023-01-13T16:50:48.445Z,1
2023-01-13T16:54:56.464Z,1
2023-01-13T16:57:00.484Z,1
2023-01-13T16:59:04.507Z,1
2023-01-13T17:01:08.699Z,1
2023-01-13T17:03:15.650Z,1
2023-01-13T17:07:23.572Z,1
2023-01-13T17:09:28.456Z,1
2023-01-13T17:13:36.442Z,1
2023-01-13T17:15:40.472Z,1
2023-01-13T17:21:55.517Z,1
2023-01-13T17:26:03.538Z,1
2023-01-13T17:28:07.547Z,1
2023-01-13T17:30:11.545Z,1
2023-01-13T17:32:18.567Z,1
2023-01-13T17:36:26.574Z,1
2023-01-13T17:39:34.120Z,1
2023-01-13T17:41:38.085Z,1
2023-01-13T17:43:42.091Z,1
2023-01-13T17:45:49.148Z,1
2023-01-13T17:47:53.093Z,1
2023-01-13T17:52:01.091Z,1
2023-01-13T17:54:05.087Z,1
2023-01-13T17:56:09.068Z,1
2023-01-13T17:58:13.051Z,1
2023-01-13T18:00:20.045Z,1
2023-01-13T18:02:24.217Z,1
2023-01-13T18:04:28.042Z,1
2023-01-13T18:06:32.058Z,1
2023-01-13T18:08:36.020Z,1
2023-01-13T18:10:40.001Z,1
2023-01-13T18:12:43.972Z,1
2023-01-13T18:14:50.932Z,1
2023-01-13T18:16:54.960Z,1
2023-01-13T18:18:58.907Z,1
2023-01-13T18:21:02.928Z,1
2023-01-13T18:23:06.924Z,1
2023-01-13T18:25:10.917Z,1
2023-01-13T18:27:14.872Z,1
2023-01-13T18:29:21.890Z,1
2023-01-13T18:31:25.830Z,1
2023-01-13T18:36:37.281Z,1
2023-01-13T18:38:41.267Z,1
2023-01-13T18:40:45.234Z,1
2023-01-13T18:42:52.320Z,1
2023-01-13T18:44:56.188Z,1
2023-01-13T18:47:00.182Z,1
2023-01-13T18:49:04.164Z,1
2023-01-13T18:51:08.142Z,1
2023-01-13T18:53:12.109Z,1
2023-01-13T18:55:16.089Z,1
2023-01-13T18:57:23.058Z,1
2023-01-13T18:59:27.021Z,1
2023-01-13T19:01:31.113Z,1
2023-01-13T19:03:34.982Z,1
2023-01-13T19:05:38.944Z,1
2023-01-13T19:07:42.915Z,1
2023-01-13T19:09:46.886Z,1
2023-01-13T19:11:53.880Z,1
2023-01-13T19:13:57.846Z,1
2023-01-13T19:16:01.851Z,1
2023-01-13T19:18:05.765Z,1
2023-01-13T19:20:09.734Z,1
2023-01-13T19:22:13.709Z,1
2023-01-13T19:24:17.666Z,1
2023-01-13T19:26:24.644Z,1
2023-01-13T19:28:28.586Z,1
2023-01-13T19:30:32.569Z,1
2023-01-13T19:32:56.883Z,1
2023-01-13T19:35:00.845Z,1
2023-01-13T19:37:04.813Z,1
2023-01-13T19:39:11.769Z,1
2023-01-13T19:41:15.724Z,1
2023-01-13T19:43:19.705Z,1
2023-01-13T19:47:27.583Z,1
2023-01-13T19:49:31.563Z,1
2023-01-13T19:51:35.513Z,1
2023-01-13T19:53:42.507Z,1
2023-01-13T19:55:46.421Z,1
2023-01-13T19:57:50.392Z,1
2023-01-13T19:59:54.347Z,1
2023-01-13T20:01:58.383Z,1
2023-01-13T20:04:02.249Z,1
2023-01-13T20:06:06.269Z,1
2023-01-13T20:08:13.219Z,1
2023-01-13T20:10:17.142Z,1
2023-01-13T20:22:43.894Z,1
2023-01-13T20:27:55.275Z,1
2023-01-13T20:29:59.256Z,1
2023-01-13T20:34:07.134Z,1
2023-01-13T20:36:14.116Z,1
2023-01-13T20:44:29.950Z,1
2023-01-13T20:46:33.963Z,1
2023-01-13T20:48:37.876Z,1
2023-01-13T20:50:44.855Z,1
2023-01-13T20:52:48.799Z,1
2023-01-13T20:54:52.762Z,1
2023-01-13T20:56:56.730Z,1
2023-01-13T20:59:00.699Z,1
2023-01-13T21:01:04.749Z,1
2023-01-13T21:03:08.616Z,1
2023-01-13T21:05:15.586Z,1
2023-01-13T21:07:19.536Z,1
2023-01-13T21:09:23.497Z,1
2023-01-13T21:11:27.441Z,1
2023-01-13T21:13:31.411Z,1
2023-01-13T21:15:35.350Z,1
2023-01-13T21:17:39.304Z,3.5
2023-01-13T21:19:46.286Z,5.7
2023-01-13T21:21:50.216Z,1
2023-01-13T21:23:54.195Z,1
2023-01-13T21:27:01.619Z,1
2023-01-13T21:29:05.584Z,1
2023-01-13T21:33:16.487Z,1
2023-01-13T21:35:20.431Z,1
2023-01-13T21:41:32.314Z,1
2023-01-13T21:43:36.282Z,1
2023-01-13T21:45:40.325Z,1
2023-01-13T21:47:47.208Z,1
2023-01-13T21:49:51.161Z,1
2023-01-13T22:00:10.981Z,1
2023-01-13T22:02:23.829Z,1
2023-01-13T22:04:21.889Z,1
2023-01-13T22:06:25.956Z,1
2023-01-13T22:08:29.804Z,1
2023-01-13T22:10:34.234Z,1
2023-01-13T22:12:37.722Z,1
2023-01-13T22:14:41.689Z,1
2023-01-13T22:16:48.763Z,1
2023-01-13T22:18:52.625Z,1
2023-01-13T22:20:56.571Z,1
2023-01-13T22:22:00.101Z,1
2023-01-13T22:24:04.054Z,1
2023-01-13T22:26:08.003Z,1
2023-01-13T22:28:11.925Z,1
2023-01-13T22:30:18.942Z,1
2023-01-13T22:32:22.895Z,1
2023-01-13T22:36:30.798Z,1
2023-01-13T22:38:34.904Z,1
2023-01-13T22:40:38.732Z,1
2023-01-13T22:42:44.269Z,1
2023-01-13T22:44:51.215Z,1
2023-01-13T22:46:55.158Z,1
2023-01-13T22:48:59.116Z,1
2023-01-13T22:51:03.072Z,1
2023-01-13T22:53:07.042Z,1
2023-01-13T22:55:11.007Z,1
2023-01-13T23:03:29.944Z,1
2023-01-13T23:05:33.818Z,1
2023-01-13T23:07:37.813Z,1
2023-01-13T23:09:41.767Z,1
2023-01-13T23:11:47.752Z,1
2023-01-13T23:13:52.710Z,1
2023-01-13T23:15:56.668Z,1
2023-01-13T23:18:00.638Z,1
2023-01-13T23:20:24.716Z,1
2023-01-13T23:22:28.679Z,1
2023-01-13T23:24:32.653Z,1
2023-01-13T23:26:39.604Z,1
2023-01-13T23:28:43.592Z,1
2023-01-13T23:30:47.567Z,1
2023-01-13T23:32:51.478Z,1
2023-01-13T23:39:03.354Z,1
2023-01-13T23:41:10.348Z,1
2023-01-13T23:43:14.302Z,1
2023-01-13T23:45:18.240Z,1
2023-01-13T23:47:22.185Z,1
2023-01-13T23:49:26.151Z,1
2023-01-13T23:51:30.227Z,1
2023-01-13T23:53:34.039Z,1
2023-01-13T23:55:40.997Z,1
2023-01-13T23:57:44.956Z,1
2023-01-13T23:59:48.986Z,1
